Time;durP1;ratioP1;P1;durP2;ratioP2;P2;SDS_P1;SDS_P2;PMS_P1;PMS_P2;Temp;Humidity;BMP_temperature;BMP_pressure;BME280_temperature;BME280_humidity;BME280_pressure;Samples;Min_cycle;Max_cycle;Signal;HPM_P1;HPM_P2
2024/01/03 06:01:00;;;;;;;5.37;1.67;;;;;;;;;;5722567;23;20488;-77
2024/01/03 06:03:26;;;;;;;3.87;1.80;;;;;;;;;;4988348;28;20432;-79
2024/01/03 06:05:52;;;;;;;7.10;1.70;;;;;;;;;;4989755;28;20404;-78
2024/01/03 06:08:18;;;;;;;8.83;1.50;;;;;;;;;;4990615;28;20427;-78
2024/01/03 06:10:44;;;;;;;12.17;2.30;;;;;;;;;;4981401;28;20432;-77
2024/01/03 06:13:14;;;;;;;4.20;1.60;;;;;;;;;;4979005;28;20423;-78
2024/01/03 06:15:40;;;;;;;4.00;1.73;;;;;;;;;;4975447;28;20942;-77
2024/01/03 06:18:06;;;;;;;5.93;1.97;;;;;;;;;;4975895;28;20412;-78
2024/01/03 06:20:32;;;;;;;10.63;1.97;;;;;;;;;;4993939;28;20531;-78
2024/01/03 06:22:58;;;;;;;7.30;1.50;;;;;;;;;;4976571;28;20842;-78
2024/01/03 06:25:24;;;;;;;3.73;2.03;;;;;;;;;;4976781;28;20431;-79
2024/01/03 06:27:50;;;;;;;5.33;1.50;;;;;;;;;;4978726;28;20408;-78
2024/01/03 06:30:16;;;;;;;3.10;2.10;;;;;;;;;;4991247;28;20866;-78
2024/01/03 06:32:42;;;;;;;6.83;1.80;;;;;;;;;;4977689;28;20500;-77
2024/01/03 06:35:08;;;;;;;10.70;2.30;;;;;;;;;;4979453;28;20495;-78
2024/01/03 06:37:34;;;;;;;6.40;1.67;;;;;;;;;;4976274;28;20412;-78
2024/01/03 06:40:00;;;;;;;3.57;1.30;;;;;;;;;;4975747;28;20554;-78
2024/01/03 06:42:26;;;;;;;9.27;1.30;;;;;;;;;;4976966;28;20436;-77
2024/01/03 06:44:53;;;;;;;3.83;1.37;;;;;;;;;;4975452;28;20416;-78
2024/01/03 06:47:19;;;;;;;2.80;1.50;;;;;;;;;;4991179;28;20464;-79
2024/01/03 06:49:45;;;;;;;10.00;1.50;;;;;;;;;;4990244;28;20507;-78
2024/01/03 06:52:11;;;;;;;1.20;1.10;;;;;;;;;;4975615;28;20510;-79
2024/01/03 06:54:37;;;;;;;3.20;1.60;;;;;;;;;;5004514;28;20469;-77
2024/01/03 06:57:04;;;;;;;4.00;1.73;;;;;;;;;;4982335;28;20840;-79
2024/01/03 06:59:34;;;;;;;8.03;2.07;;;;;;;;;;4975748;28;20787;-78
2024/01/03 07:02:00;;;;;;;6.87;1.80;;;;;;;;;;4975545;28;20471;-76
2024/01/03 07:04:26;;;;;;;5.23;1.70;;;;;;;;;;4975792;28;20419;-77
2024/01/03 07:06:52;;;;;;;2.10;1.60;;;;;;;;;;4975796;28;20412;-78
2024/01/03 07:09:18;;;;;;;5.70;1.57;;;;;;;;;;4977410;28;20420;-78
2024/01/03 07:11:44;;;;;;;8.37;1.93;;;;;;;;;;4976210;28;20436;-77
2024/01/03 07:14:12;;;;;;;4.23;1.90;;;;;;;;;;4990585;28;20467;-78
2024/01/03 07:16:38;;;;;;;9.80;2.30;;;;;;;;;;4975001;28;20506;-76
2024/01/03 07:19:04;;;;;;;6.20;2.20;;;;;;;;;;4976180;28;20408;-77
2024/01/03 07:21:30;;;;;;;3.50;1.90;;;;;;;;;;4979025;28;20447;-78
2024/01/03 07:23:56;;;;;;;9.07;2.37;;;;;;;;;;4990188;28;20798;-79
2024/01/03 07:26:22;;;;;;;5.57;1.70;;;;;;;;;;4992933;28;20423;-77
2024/01/03 07:28:48;;;;;;;4.17;2.03;;;;;;;;;;4979843;28;20514;-77
2024/01/03 07:31:15;;;;;;;3.37;1.90;;;;;;;;;;4987280;28;20519;-79
2024/01/03 07:33:41;;;;;;;2.60;1.80;;;;;;;;;;5004943;28;20451;-79
2024/01/03 07:36:08;;;;;;;6.10;2.00;;;;;;;;;;4983011;28;20408;-79
2024/01/03 07:38:34;;;;;;;4.70;1.70;;;;;;;;;;4982714;28;20412;-78
2024/01/03 07:41:00;;;;;;;4.63;2.00;;;;;;;;;;4980416;28;20901;-79
2024/01/03 07:43:29;;;;;;;1.90;1.20;;;;;;;;;;4995566;28;20424;-78
2024/01/03 07:45:55;;;;;;;3.77;1.80;;;;;;;;;;4979578;28;20408;-78
2024/01/03 07:48:21;;;;;;;6.40;2.10;;;;;;;;;;4982613;28;20407;-77
2024/01/03 07:50:47;;;;;;;4.50;1.77;;;;;;;;;;4978669;28;20438;-77
2024/01/03 07:53:13;;;;;;;2.97;1.40;;;;;;;;;;4980596;28;20411;-78
2024/01/03 07:55:39;;;;;;;2.43;1.50;;;;;;;;;;4980743;28;20423;-77
2024/01/03 07:58:05;;;;;;;4.73;1.60;;;;;;;;;;4979752;28;20412;-78
2024/01/03 08:00:31;;;;;;;3.40;1.40;;;;;;;;;;4978322;28;20455;-77
2024/01/03 08:02:57;;;;;;;4.73;1.47;;;;;;;;;;4979747;28;20906;-78
2024/01/03 08:05:23;;;;;;;3.27;1.57;;;;;;;;;;4977795;28;20933;-78
2024/01/03 08:07:49;;;;;;;3.73;1.70;;;;;;;;;;4997070;28;20428;-79
2024/01/03 08:10:16;;;;;;;4.53;1.97;;;;;;;;;;4978073;28;20941;-77
2024/01/03 08:12:42;;;;;;;4.90;1.47;;;;;;;;;;4977170;28;20407;-76
2024/01/03 08:15:08;;;;;;;5.20;2.53;;;;;;;;;;4992962;28;20489;-77
2024/01/03 08:17:34;;;;;;;4.23;1.73;;;;;;;;;;4993984;28;20432;-77
2024/01/03 08:20:00;;;;;;;3.27;1.40;;;;;;;;;;4977202;28;20926;-78
2024/01/03 08:22:26;;;;;;;2.30;1.67;;;;;;;;;;4992665;28;20439;-78
2024/01/03 08:24:52;;;;;;;4.10;1.40;;;;;;;;;;4976548;28;20423;-77
2024/01/03 08:27:18;;;;;;;1.33;1.23;;;;;;;;;;4978183;28;20503;-79
2024/01/03 08:29:44;;;;;;;4.20;1.57;;;;;;;;;;4978599;28;20443;-79
2024/01/03 08:32:11;;;;;;;5.70;1.60;;;;;;;;;;4958042;28;20444;-77
2024/01/03 08:34:37;;;;;;;2.40;1.17;;;;;;;;;;4960405;28;20471;-76
2024/01/03 08:37:03;;;;;;;3.37;1.40;;;;;;;;;;4972373;28;20413;-76
2024/01/03 08:39:29;;;;;;;3.80;1.23;;;;;;;;;;4957459;28;20741;-75
2024/01/03 08:41:55;;;;;;;3.47;1.40;;;;;;;;;;4957547;28;20425;-77
2024/01/03 08:44:21;;;;;;;3.90;1.83;;;;;;;;;;4957510;28;20900;-76
2024/01/03 08:46:47;;;;;;;3.50;1.43;;;;;;;;;;4971253;28;20425;-78
2024/01/03 08:49:14;;;;;;;3.07;1.40;;;;;;;;;;4956976;28;20420;-77
2024/01/03 08:51:40;;;;;;;5.43;1.67;;;;;;;;;;4957740;28;20433;-77
2024/01/03 08:54:06;;;;;;;4.07;1.63;;;;;;;;;;4956991;28;20461;-76
2024/01/03 08:56:32;;;;;;;4.70;1.57;;;;;;;;;;4957593;28;20432;-76
2024/01/03 08:58:58;;;;;;;6.57;1.60;;;;;;;;;;4957267;28;20413;-76
2024/01/03 09:01:27;;;;;;;7.90;1.93;;;;;;;;;;4971226;28;20863;-77
2024/01/03 09:03:53;;;;;;;5.57;1.67;;;;;;;;;;4959216;28;20847;-76
2024/01/03 09:06:20;;;;;;;10.33;2.60;;;;;;;;;;4975207;28;20420;-76
2024/01/03 09:08:50;;;;;;;6.80;1.50;;;;;;;;;;4976482;28;20416;-77
2024/01/03 09:11:16;;;;;;;1.53;1.40;;;;;;;;;;4983091;28;20674;-78
2024/01/03 09:13:42;;;;;;;4.50;1.43;;;;;;;;;;4975465;28;20859;-76
2024/01/03 09:16:10;;;;;;;4.20;1.40;;;;;;;;;;4976175;28;20420;-77
2024/01/03 09:18:37;;;;;;;2.10;1.27;;;;;;;;;;4972271;28;20443;-76
2024/01/03 09:21:03;;;;;;;7.30;1.60;;;;;;;;;;4973600;28;20479;-76
2024/01/03 09:23:29;;;;;;;1.83;1.07;;;;;;;;;;4973030;28;20415;-76
2024/01/03 09:25:55;;;;;;;4.20;1.27;;;;;;;;;;4979100;28;20444;-75
2024/01/03 09:28:22;;;;;;;3.40;1.10;;;;;;;;;;4984063;28;20490;-74
2024/01/03 09:30:48;;;;;;;2.00;1.27;;;;;;;;;;4976003;28;20432;-75
2024/01/03 09:33:14;;;;;;;1.50;1.07;;;;;;;;;;4963314;28;20916;-76
2024/01/03 09:35:40;;;;;;;4.73;1.10;;;;;;;;;;4964900;28;20519;-75
2024/01/03 09:38:06;;;;;;;4.63;1.23;;;;;;;;;;4974192;28;20417;-76
2024/01/03 09:40:33;;;;;;;1.43;1.23;;;;;;;;;;4971507;28;20452;-76
2024/01/03 09:43:02;;;;;;;2.00;1.20;;;;;;;;;;4974201;28;20420;-78
2024/01/03 09:45:28;;;;;;;7.30;1.43;;;;;;;;;;4970477;28;20459;-79
2024/01/03 09:47:54;;;;;;;4.73;1.20;;;;;;;;;;4974310;28;20478;-78
2024/01/03 09:50:21;;;;;;;1.73;0.90;;;;;;;;;;4978187;28;20449;-76
2024/01/03 09:52:48;;;;;;;2.93;1.10;;;;;;;;;;4976033;28;20456;-77
2024/01/03 09:55:14;;;;;;;2.27;1.40;;;;;;;;;;4971921;28;20503;-74
2024/01/03 09:57:40;;;;;;;4.30;1.70;;;;;;;;;;4966420;28;20421;-76
2024/01/03 10:00:08;;;;;;;4.20;1.30;;;;;;;;;;4959500;28;20420;-73
2024/01/03 10:02:36;;;;;;;2.27;1.03;;;;;;;;;;4958928;28;20432;-75
2024/01/03 10:05:03;;;;;;;9.23;1.00;;;;;;;;;;4975501;28;20518;-76
2024/01/03 10:07:33;;;;;;;2.10;1.30;;;;;;;;;;4969301;28;20901;-75
2024/01/03 10:09:59;;;;;;;5.40;1.57;;;;;;;;;;4972630;28;20514;-75
2024/01/03 10:12:25;;;;;;;3.07;2.00;;;;;;;;;;4976666;28;20831;-74
2024/01/03 10:14:51;;;;;;;3.97;1.43;;;;;;;;;;4973538;28;20991;-76
2024/01/03 10:17:17;;;;;;;2.83;1.53;;;;;;;;;;4974630;28;20404;-76
2024/01/03 10:19:43;;;;;;;1.30;1.20;;;;;;;;;;4974796;28;20422;-75
2024/01/03 10:22:09;;;;;;;2.13;1.30;;;;;;;;;;4975005;28;20490;-74
2024/01/03 10:24:42;;;;;;;5.07;1.20;;;;;;;;;;4967328;28;20478;-74
2024/01/03 10:27:09;;;;;;;6.60;1.80;;;;;;;;;;4979400;28;20532;-75
2024/01/03 10:29:35;;;;;;;1.30;1.20;;;;;;;;;;4974860;28;20463;-75
2024/01/03 10:32:03;;;;;;;2.70;1.70;;;;;;;;;;4972607;28;20444;-75
2024/01/03 10:34:29;;;;;;;2.90;1.30;;;;;;;;;;4962828;28;20484;-75
2024/01/03 10:36:56;;;;;;;6.10;1.97;;;;;;;;;;4956023;28;20421;-76
2024/01/03 10:39:22;;;;;;;2.70;1.17;;;;;;;;;;4974822;28;20412;-74
2024/01/03 10:41:49;;;;;;;6.27;1.67;;;;;;;;;;4966729;28;20448;-74
2024/01/03 10:44:16;;;;;;;6.40;1.60;;;;;;;;;;4974907;28;20431;-74
2024/01/03 10:46:42;;;;;;;4.83;1.50;;;;;;;;;;4968366;28;20454;-75
2024/01/03 10:49:08;;;;;;;3.77;1.50;;;;;;;;;;4984236;28;20426;-77
2024/01/03 10:51:39;;;;;;;2.13;1.33;;;;;;;;;;4983599;28;20439;-78
2024/01/03 10:54:07;;;;;;;3.43;1.50;;;;;;;;;;4979471;28;20832;-76
2024/01/03 10:56:35;;;;;;;3.13;1.53;;;;;;;;;;4973018;28;20470;-75
2024/01/03 10:59:02;;;;;;;3.50;1.10;;;;;;;;;;4974592;28;20423;-75
2024/01/03 11:01:44;;;;;;;2.63;1.30;;;;;;;;;;4978489;28;20935;-75
2024/01/03 11:04:26;;;;;;;2.80;1.10;;;;;;;;;;4976920;28;20667;-78
2024/01/03 11:07:05;;;;;;;8.53;1.83;;;;;;;;;;4978352;28;20434;-74
2024/01/03 11:09:31;;;;;;;1.87;1.17;;;;;;;;;;4978277;28;20466;-76
2024/01/03 11:12:10;;;;;;;3.03;1.50;;;;;;;;;;4998014;28;20451;-75
2024/01/03 11:14:36;;;;;;;2.60;1.23;;;;;;;;;;4982428;28;20455;-75
2024/01/03 11:17:03;;;;;;;2.50;1.07;;;;;;;;;;4982122;28;20519;-75
2024/01/03 11:19:32;;;;;;;3.80;1.13;;;;;;;;;;4983511;28;20442;-75
2024/01/03 11:21:59;;;;;;;3.20;1.50;;;;;;;;;;4985171;28;20432;-75
2024/01/03 11:24:28;;;;;;;2.63;1.40;;;;;;;;;;4977275;28;20443;-75
2024/01/03 11:26:54;;;;;;;2.40;1.50;;;;;;;;;;4975961;28;20422;-75
2024/01/03 11:29:35;;;;;;;1.27;1.17;;;;;;;;;;4980477;28;20415;-76
2024/01/03 11:32:04;;;;;;;1.87;1.10;;;;;;;;;;4970277;28;20435;-76
2024/01/03 11:34:36;;;;;;;3.20;1.03;;;;;;;;;;4966419;28;20455;-76
2024/01/03 11:37:03;;;;;;;1.40;1.10;;;;;;;;;;4977281;28;20420;-76
2024/01/03 11:39:33;;;;;;;2.30;1.33;;;;;;;;;;4977216;28;20414;-74
2024/01/03 11:41:59;;;;;;;2.43;1.10;;;;;;;;;;4975697;28;20440;-73
2024/01/03 11:44:25;;;;;;;7.30;1.53;;;;;;;;;;4973730;28;20420;-74
2024/01/03 11:46:57;;;;;;;5.07;1.60;;;;;;;;;;4973568;28;20953;-76
2024/01/03 11:49:23;;;;;;;4.90;1.57;;;;;;;;;;4971554;28;20738;-76
2024/01/03 11:51:49;;;;;;;5.07;1.50;;;;;;;;;;4985816;28;20447;-75
2024/01/03 11:54:15;;;;;;;2.03;1.27;;;;;;;;;;4978294;28;20467;-76
2024/01/03 11:56:41;;;;;;;1.00;0.87;;;;;;;;;;4975139;28;20429;-75
2024/01/03 11:59:07;;;;;;;4.10;1.50;;;;;;;;;;4979076;28;20433;-74
2024/01/03 12:01:33;;;;;;;5.10;1.90;;;;;;;;;;4979245;28;20460;-75
2024/01/03 12:04:08;;;;;;;5.30;1.20;;;;;;;;;;4997458;28;20432;-75
2024/01/03 12:06:35;;;;;;;5.10;1.80;;;;;;;;;;4994695;28;20391;-76
2024/01/03 12:09:02;;;;;;;2.23;1.20;;;;;;;;;;4987554;28;20448;-77
2024/01/03 12:11:28;;;;;;;3.83;1.53;;;;;;;;;;4987070;28;20463;-76
2024/01/03 12:13:54;;;;;;;4.00;1.90;;;;;;;;;;4995147;23;21017;-74
2024/01/03 12:16:20;;;;;;;4.40;1.60;;;;;;;;;;4981626;28;20408;-74
2024/01/03 12:18:47;;;;;;;6.40;2.40;;;;;;;;;;4971513;28;20431;-74
2024/01/03 12:21:13;;;;;;;3.40;1.33;;;;;;;;;;4975549;28;20482;-76
2024/01/03 12:23:39;;;;;;;8.23;1.57;;;;;;;;;;4973744;28;20932;-77
2024/01/03 12:26:10;;;;;;;4.10;1.53;;;;;;;;;;4975874;28;20420;-75
2024/01/03 12:28:36;;;;;;;8.20;1.80;;;;;;;;;;4975479;28;20416;-75
2024/01/03 12:31:02;;;;;;;2.47;1.70;;;;;;;;;;4975536;28;20435;-76
2024/01/03 12:33:28;;;;;;;5.10;1.43;;;;;;;;;;4969613;28;20447;-75
2024/01/03 12:36:00;;;;;;;4.57;1.60;;;;;;;;;;4970468;28;20458;-76
2024/01/03 12:38:26;;;;;;;6.73;1.90;;;;;;;;;;4975279;28;20414;-76
2024/01/03 12:40:52;;;;;;;4.13;1.77;;;;;;;;;;4975143;28;20416;-75
2024/01/03 12:43:18;;;;;;;2.50;1.60;;;;;;;;;;4975108;28;20435;-76
2024/01/03 12:45:44;;;;;;;3.17;1.43;;;;;;;;;;4975263;28;20828;-76
2024/01/03 12:48:10;;;;;;;1.63;1.23;;;;;;;;;;4975650;28;20891;-76
2024/01/03 12:50:36;;;;;;;4.57;1.30;;;;;;;;;;4975334;28;20412;-75
2024/01/03 12:53:02;;;;;;;6.30;1.87;;;;;;;;;;4975130;28;20467;-76
2024/01/03 12:55:28;;;;;;;7.10;2.37;;;;;;;;;;4975378;28;20549;-76
2024/01/03 12:57:54;;;;;;;2.30;1.70;;;;;;;;;;4975431;28;20463;-77
2024/01/03 13:00:20;;;;;;;1.90;1.47;;;;;;;;;;4975046;28;20766;-74
2024/01/03 13:02:46;;;;;;;4.20;1.27;;;;;;;;;;4971723;28;20850;-74
2024/01/03 13:05:12;;;;;;;1.57;1.47;;;;;;;;;;4975300;28;20400;-76
2024/01/03 13:07:38;;;;;;;5.60;1.20;;;;;;;;;;4994638;28;20407;-77
2024/01/03 13:10:04;;;;;;;1.70;1.10;;;;;;;;;;4996374;28;20418;-78
2024/01/03 13:12:30;;;;;;;2.97;1.30;;;;;;;;;;5001470;28;20415;-78
2024/01/03 13:14:56;;;;;;;1.17;0.90;;;;;;;;;;4999444;28;20476;-77
2024/01/03 13:17:23;;;;;;;1.60;1.27;;;;;;;;;;4996731;28;20421;-78
2024/01/03 13:19:49;;;;;;;3.23;1.80;;;;;;;;;;5004027;28;20475;-77
2024/01/03 13:22:15;;;;;;;1.20;1.10;;;;;;;;;;4994552;28;20438;-76
2024/01/03 13:24:42;;;;;;;5.03;1.00;;;;;;;;;;4995669;28;20434;-76
2024/01/03 13:27:08;;;;;;;3.17;1.07;;;;;;;;;;4997527;28;20407;-76
2024/01/03 13:29:34;;;;;;;4.27;1.10;;;;;;;;;;4997955;28;20942;-76
2024/01/03 13:32:00;;;;;;;1.90;1.40;;;;;;;;;;4997783;28;20486;-76
2024/01/03 13:34:26;;;;;;;3.33;1.60;;;;;;;;;;4997756;28;20466;-77
2024/01/03 13:36:52;;;;;;;3.63;1.50;;;;;;;;;;4996559;28;20407;-75
2024/01/03 13:39:18;;;;;;;2.43;1.10;;;;;;;;;;4999460;28;20777;-75
2024/01/03 13:41:44;;;;;;;2.43;1.13;;;;;;;;;;5001054;28;20437;-74
2024/01/03 13:44:10;;;;;;;4.87;1.80;;;;;;;;;;4997547;28;20859;-72
2024/01/03 13:46:36;;;;;;;3.97;1.40;;;;;;;;;;4995063;28;20856;-73
2024/01/03 13:49:02;;;;;;;2.30;1.33;;;;;;;;;;4994836;28;20442;-75
2024/01/03 13:51:28;;;;;;;1.87;1.00;;;;;;;;;;4968376;28;20427;-75
2024/01/03 13:53:55;;;;;;;3.40;2.00;;;;;;;;;;4974252;28;20981;-75
2024/01/03 13:56:23;;;;;;;2.70;1.23;;;;;;;;;;4970821;28;20412;-75
2024/01/03 13:58:49;;;;;;;1.93;1.20;;;;;;;;;;4974085;28;20404;-75
2024/01/03 14:01:16;;;;;;;1.90;1.00;;;;;;;;;;4973970;28;20417;-75
2024/01/03 14:03:42;;;;;;;1.43;1.20;;;;;;;;;;4973706;28;20794;-75
2024/01/03 14:06:09;;;;;;;2.20;0.83;;;;;;;;;;4973617;28;20482;-75
2024/01/03 14:08:35;;;;;;;2.23;1.30;;;;;;;;;;4975852;28;20412;-75
2024/01/03 14:11:04;;;;;;;3.40;1.10;;;;;;;;;;4973728;28;20910;-75
2024/01/03 14:13:31;;;;;;;1.13;1.10;;;;;;;;;;4973149;28;20542;-75
2024/01/03 14:15:58;;;;;;;1.53;1.10;;;;;;;;;;4973885;28;20916;-74
2024/01/03 14:18:24;;;;;;;2.30;1.10;;;;;;;;;;4973712;28;20759;-74
2024/01/03 14:20:50;;;;;;;5.93;1.73;;;;;;;;;;4973351;28;20419;-74
2024/01/03 14:23:19;;;;;;;2.43;1.27;;;;;;;;;;4969749;28;20459;-74
2024/01/03 14:25:46;;;;;;;1.73;1.30;;;;;;;;;;4972663;28;20433;-74
2024/01/03 14:28:11;;;;;;;6.47;2.10;;;;;;;;;;4972735;28;20507;-74
2024/01/03 14:30:37;;;;;;;5.30;1.20;;;;;;;;;;4973103;28;20523;-76
2024/01/03 14:33:04;;;;;;;2.40;1.30;;;;;;;;;;4972721;28;20494;-75
2024/01/03 14:35:31;;;;;;;5.23;1.40;;;;;;;;;;4973156;28;20505;-75
2024/01/03 14:37:57;;;;;;;4.63;1.20;;;;;;;;;;4973561;28;20431;-75
2024/01/03 14:40:28;;;;;;;1.90;1.83;;;;;;;;;;4973149;28;20412;-75
2024/01/03 14:42:57;;;;;;;6.00;1.90;;;;;;;;;;4972720;28;20986;-75
2024/01/03 14:45:23;;;;;;;7.67;2.23;;;;;;;;;;4973258;28;20447;-75
2024/01/03 14:47:49;;;;;;;5.97;2.20;;;;;;;;;;4973248;28;20470;-75
2024/01/03 14:50:15;;;;;;;4.40;2.03;;;;;;;;;;4972941;28;20412;-75
2024/01/03 14:52:42;;;;;;;4.93;1.50;;;;;;;;;;4972947;28;20412;-74
2024/01/03 14:55:10;;;;;;;5.47;2.10;;;;;;;;;;4972896;28;20454;-75
2024/01/03 14:57:35;;;;;;;4.63;1.77;;;;;;;;;;4972980;28;20423;-75
2024/01/03 15:00:02;;;;;;;16.50;2.07;;;;;;;;;;4968581;28;20420;-75
2024/01/03 15:02:28;;;;;;;5.40;2.10;;;;;;;;;;4966419;28;20459;-73
2024/01/03 15:04:53;;;;;;;6.00;1.70;;;;;;;;;;4958946;28;20975;-74
2024/01/03 15:07:19;;;;;;;6.93;1.90;;;;;;;;;;4970360;28;20436;-75
2024/01/03 15:09:45;;;;;;;10.70;1.73;;;;;;;;;;4970465;28;20416;-75
2024/01/03 15:12:11;;;;;;;2.33;1.50;;;;;;;;;;4971915;28;20420;-75
2024/01/03 15:14:37;;;;;;;5.27;1.70;;;;;;;;;;4965129;28;20537;-75
2024/01/03 15:17:03;;;;;;;2.13;1.43;;;;;;;;;;4962251;28;20415;-73
2024/01/03 15:19:30;;;;;;;3.60;1.70;;;;;;;;;;4967257;28;20415;-73
2024/01/03 15:22:02;;;;;;;4.10;1.30;;;;;;;;;;4972659;28;20469;-73
2024/01/03 15:24:28;;;;;;;4.53;2.20;;;;;;;;;;4972240;28;20447;-73
2024/01/03 15:26:54;;;;;;;1.97;1.40;;;;;;;;;;4972802;28;20427;-73
2024/01/03 15:29:19;;;;;;;1.33;1.20;;;;;;;;;;4972718;28;20558;-73
2024/01/03 15:31:47;;;;;;;5.27;2.40;;;;;;;;;;4973435;28;20419;-72
2024/01/03 15:34:13;;;;;;;9.00;2.00;;;;;;;;;;4968618;28;20463;-74
2024/01/03 15:36:39;;;;;;;4.63;2.30;;;;;;;;;;4971257;28;20428;-75
2024/01/03 15:39:08;;;;;;;3.83;1.73;;;;;;;;;;4969129;28;20482;-75
2024/01/03 15:41:34;;;;;;;4.20;2.23;;;;;;;;;;4969289;28;20446;-75
2024/01/03 15:44:01;;;;;;;4.90;1.83;;;;;;;;;;4972980;28;20955;-75
2024/01/03 15:46:28;;;;;;;5.53;1.77;;;;;;;;;;4977001;28;20462;-75
2024/01/03 15:48:54;;;;;;;4.37;1.97;;;;;;;;;;4961908;28;20420;-75
2024/01/03 15:51:21;;;;;;;3.07;2.10;;;;;;;;;;4973459;28;20419;-75
2024/01/03 15:53:46;;;;;;;3.40;1.77;;;;;;;;;;4956225;28;20448;-76
2024/01/03 15:56:12;;;;;;;7.90;2.80;;;;;;;;;;4970552;28;20416;-75
2024/01/03 15:58:38;;;;;;;9.23;4.07;;;;;;;;;;4976023;28;20416;-73
2024/01/03 16:01:04;;;;;;;14.43;5.63;;;;;;;;;;4976187;28;20506;-73
2024/01/03 16:03:30;;;;;;;13.67;7.20;;;;;;;;;;4976982;28;20768;-73
2024/01/03 16:05:56;;;;;;;10.43;5.30;;;;;;;;;;4976110;28;20411;-73
2024/01/03 16:08:22;;;;;;;3.20;2.50;;;;;;;;;;4971918;28;20413;-75
2024/01/03 16:10:49;;;;;;;2.00;1.60;;;;;;;;;;4971984;28;20423;-76
2024/01/03 16:13:14;;;;;;;3.10;1.40;;;;;;;;;;4971013;28;20451;-74
2024/01/03 16:15:40;;;;;;;7.03;1.77;;;;;;;;;;4969386;28;20489;-75
2024/01/03 16:18:07;;;;;;;5.80;1.90;;;;;;;;;;4964922;28;20538;-75
2024/01/03 16:20:33;;;;;;;3.90;1.83;;;;;;;;;;4965345;28;20444;-75
2024/01/03 16:22:59;;;;;;;2.40;1.33;;;;;;;;;;4967666;28;20491;-75
2024/01/03 16:25:26;;;;;;;3.80;2.00;;;;;;;;;;4969292;28;20426;-75
2024/01/03 16:27:52;;;;;;;5.40;1.53;;;;;;;;;;4966278;28;20733;-75
2024/01/03 16:30:18;;;;;;;2.50;1.63;;;;;;;;;;4967610;28;20447;-75
2024/01/03 16:32:44;;;;;;;2.37;1.47;;;;;;;;;;4965512;28;20447;-76
2024/01/03 16:35:12;;;;;;;3.67;1.70;;;;;;;;;;4967525;28;20472;-75
2024/01/03 16:37:38;;;;;;;5.10;1.70;;;;;;;;;;4964411;28;20469;-76
2024/01/03 16:40:06;;;;;;;2.00;1.83;;;;;;;;;;4967450;28;20428;-75
2024/01/03 16:42:37;;;;;;;4.50;2.00;;;;;;;;;;4975061;28;20415;-73
2024/01/03 16:45:04;;;;;;;4.00;2.43;;;;;;;;;;4974961;28;20423;-73
2024/01/03 16:47:29;;;;;;;3.27;2.37;;;;;;;;;;4973377;28;20455;-73
2024/01/03 16:49:55;;;;;;;3.20;1.60;;;;;;;;;;4973437;28;20448;-73
2024/01/03 16:52:21;;;;;;;4.77;1.50;;;;;;;;;;4964257;28;20416;-74
2024/01/03 16:54:47;;;;;;;3.27;2.17;;;;;;;;;;4970947;28;20468;-75
2024/01/03 16:57:13;;;;;;;8.80;3.43;;;;;;;;;;4974002;28;20420;-75
2024/01/03 16:59:39;;;;;;;10.00;3.20;;;;;;;;;;4975032;28;20416;-74
2024/01/03 17:02:06;;;;;;;2.00;1.80;;;;;;;;;;4973650;28;20423;-74
2024/01/03 17:04:32;;;;;;;6.53;2.40;;;;;;;;;;4974802;28;20459;-74
2024/01/03 17:06:57;;;;;;;3.97;2.37;;;;;;;;;;4975006;28;20428;-75
2024/01/03 17:09:23;;;;;;;4.13;2.30;;;;;;;;;;4965295;28;20416;-75
2024/01/03 17:11:49;;;;;;;5.40;1.80;;;;;;;;;;4972447;28;20795;-75
2024/01/03 17:14:15;;;;;;;3.23;2.10;;;;;;;;;;4967465;28;20486;-76
2024/01/03 17:16:42;;;;;;;4.20;2.33;;;;;;;;;;4971952;28;20419;-75
2024/01/03 17:19:08;;;;;;;6.03;1.60;;;;;;;;;;4974577;28;20413;-75
2024/01/03 17:21:35;;;;;;;2.70;1.57;;;;;;;;;;4974233;28;20436;-74
2024/01/03 17:24:01;;;;;;;3.33;1.77;;;;;;;;;;4974518;28;20793;-74
2024/01/03 17:26:34;;;;;;;2.17;1.47;;;;;;;;;;4974632;28;20443;-73
2024/01/03 17:29:02;;;;;;;2.47;2.10;;;;;;;;;;4974062;28;20419;-74
2024/01/03 17:31:31;;;;;;;2.83;1.67;;;;;;;;;;4971307;28;20490;-73
2024/01/03 17:33:57;;;;;;;1.43;1.30;;;;;;;;;;4966949;28;20472;-74
2024/01/03 17:36:23;;;;;;;3.17;1.50;;;;;;;;;;4964291;28;20471;-74
2024/01/03 17:38:49;;;;;;;1.50;1.40;;;;;;;;;;4965198;28;20443;-74
2024/01/03 17:41:23;;;;;;;4.10;2.03;;;;;;;;;;4969357;28;20526;-73
2024/01/03 17:43:48;;;;;;;4.20;1.40;;;;;;;;;;4973789;28;20436;-72
2024/01/03 17:46:14;;;;;;;7.87;1.60;;;;;;;;;;4969596;28;20420;-75
2024/01/03 17:48:41;;;;;;;14.63;2.00;;;;;;;;;;4968843;28;20430;-75
2024/01/03 17:51:07;;;;;;;13.40;2.43;;;;;;;;;;4971551;28;20892;-75
2024/01/03 17:53:33;;;;;;;3.33;1.20;;;;;;;;;;4974200;28;20432;-76
2024/01/03 17:55:59;;;;;;;2.10;1.50;;;;;;;;;;4961960;28;20446;-76
2024/01/03 17:58:25;;;;;;;7.20;1.60;;;;;;;;;;4969383;28;20421;-77
2024/01/03 18:00:51;;;;;;;3.73;1.40;;;;;;;;;;4969647;28;20503;-76
2024/01/03 18:03:17;;;;;;;2.90;1.40;;;;;;;;;;4968820;28;20447;-77
2024/01/03 18:05:43;;;;;;;2.30;1.70;;;;;;;;;;4974981;28;20423;-75
2024/01/03 18:08:09;;;;;;;3.23;1.50;;;;;;;;;;4971794;28;20935;-75
2024/01/03 18:10:36;;;;;;;4.67;1.27;;;;;;;;;;4974378;28;20985;-74
2024/01/03 18:13:02;;;;;;;4.47;1.93;;;;;;;;;;4959126;28;20510;-74
2024/01/03 18:15:30;;;;;;;9.50;2.27;;;;;;;;;;4954628;28;20468;-74
2024/01/03 18:17:56;;;;;;;1.70;1.20;;;;;;;;;;4954593;28;20425;-74
2024/01/03 18:20:21;;;;;;;1.93;1.30;;;;;;;;;;4954544;28;20413;-74
2024/01/03 18:22:48;;;;;;;3.83;1.53;;;;;;;;;;4954506;28;20425;-75
2024/01/03 18:25:14;;;;;;;2.87;1.30;;;;;;;;;;4955156;28;20420;-75
2024/01/03 18:27:40;;;;;;;3.03;1.20;;;;;;;;;;4973783;28;20511;-77
2024/01/03 18:30:09;;;;;;;3.10;1.07;;;;;;;;;;4973513;28;20431;-74
2024/01/03 18:32:38;;;;;;;1.30;1.20;;;;;;;;;;4973053;28;20937;-75
2024/01/03 18:35:06;;;;;;;1.73;1.10;;;;;;;;;;4971800;28;20479;-75
2024/01/03 18:37:32;;;;;;;3.17;1.67;;;;;;;;;;4972945;28;20412;-74
2024/01/03 18:39:58;;;;;;;1.57;1.07;;;;;;;;;;4972841;28;20424;-74
2024/01/03 18:42:25;;;;;;;1.47;1.20;;;;;;;;;;4971592;28;20451;-74
2024/01/03 18:44:51;;;;;;;2.27;1.07;;;;;;;;;;4970329;28;20456;-76
2024/01/03 18:47:17;;;;;;;1.43;1.10;;;;;;;;;;4978922;28;20427;-70
2024/01/03 18:49:43;;;;;;;5.87;1.50;;;;;;;;;;4974083;28;20420;-72
2024/01/03 18:52:09;;;;;;;1.67;1.23;;;;;;;;;;4962019;28;20428;-72
2024/01/03 18:54:35;;;;;;;6.57;1.63;;;;;;;;;;4953419;28;20900;-72
2024/01/03 18:57:01;;;;;;;1.30;1.20;;;;;;;;;;4959799;28;20420;-72
2024/01/03 18:59:27;;;;;;;2.50;1.23;;;;;;;;;;4971375;28;20432;-72
2024/01/03 19:01:53;;;;;;;1.50;1.40;;;;;;;;;;4972984;28;20420;-72
2024/01/03 19:04:19;;;;;;;3.03;1.63;;;;;;;;;;4972578;28;20439;-73
2024/01/03 19:06:45;;;;;;;2.70;1.20;;;;;;;;;;4973129;28;20424;-71
2024/01/03 19:09:12;;;;;;;3.00;1.37;;;;;;;;;;4969802;28;20523;-74
2024/01/03 19:11:38;;;;;;;3.83;1.70;;;;;;;;;;4966098;28;20494;-73
2024/01/03 19:14:07;;;;;;;3.17;1.60;;;;;;;;;;4970780;28;20971;-74
2024/01/03 19:16:34;;;;;;;2.57;1.40;;;;;;;;;;4970707;28;20435;-73
2024/01/03 19:19:02;;;;;;;7.33;2.10;;;;;;;;;;4981011;28;20878;-73
2024/01/03 19:21:28;;;;;;;1.60;1.43;;;;;;;;;;4971265;28;20420;-73
2024/01/03 19:23:54;;;;;;;1.70;1.20;;;;;;;;;;4976376;28;20514;-73
2024/01/03 19:26:20;;;;;;;3.13;1.70;;;;;;;;;;4976068;28;20431;-73
2024/01/03 19:28:46;;;;;;;1.53;1.40;;;;;;;;;;4976464;28;20423;-73
2024/01/03 19:31:12;;;;;;;3.40;1.57;;;;;;;;;;4976444;28;20419;-73
2024/01/03 19:33:39;;;;;;;2.20;1.50;;;;;;;;;;4969809;28;20432;-74
2024/01/03 19:36:05;;;;;;;2.70;1.70;;;;;;;;;;4976477;28;20447;-73
2024/01/03 19:38:31;;;;;;;1.43;1.10;;;;;;;;;;4974748;28;20479;-75
2024/01/03 19:41:00;;;;;;;4.37;1.40;;;;;;;;;;4971402;28;20428;-74
2024/01/03 19:43:26;;;;;;;1.00;0.90;;;;;;;;;;4975594;28;20435;-73
2024/01/03 19:45:52;;;;;;;1.80;1.03;;;;;;;;;;4975303;28;20423;-74
2024/01/03 19:48:18;;;;;;;1.13;1.07;;;;;;;;;;4976451;28;20423;-74
2024/01/03 19:50:44;;;;;;;1.57;1.00;;;;;;;;;;4977064;28;20923;-74
2024/01/03 19:53:10;;;;;;;2.30;1.00;;;;;;;;;;4976235;28;20439;-74
2024/01/03 19:55:36;;;;;;;2.37;1.27;;;;;;;;;;4975554;28;20467;-74
2024/01/03 19:58:02;;;;;;;6.10;1.33;;;;;;;;;;4976415;28;20440;-74
2024/01/03 20:00:28;;;;;;;6.20;1.30;;;;;;;;;;4976087;28;20916;-74
2024/01/03 20:02:54;;;;;;;2.67;1.53;;;;;;;;;;4975930;28;20607;-74
2024/01/03 20:05:20;;;;;;;2.30;1.20;;;;;;;;;;4977108;28;20423;-72
2024/01/03 20:07:46;;;;;;;3.70;1.50;;;;;;;;;;4980120;28;20500;-72
2024/01/03 20:10:13;;;;;;;2.07;1.20;;;;;;;;;;4972335;28;20420;-72
2024/01/03 20:12:39;;;;;;;5.00;1.33;;;;;;;;;;4972639;28;20429;-74
2024/01/03 20:15:10;;;;;;;1.60;1.20;;;;;;;;;;4956471;28;20917;-74
2024/01/03 20:17:36;;;;;;;1.80;1.30;;;;;;;;;;4956893;28;20413;-73
2024/01/03 20:20:02;;;;;;;2.50;1.70;;;;;;;;;;4963306;28;20411;-75
2024/01/03 20:22:29;;;;;;;7.20;1.63;;;;;;;;;;4976078;28;20423;-75
2024/01/03 20:24:55;;;;;;;3.27;1.37;;;;;;;;;;4972865;28;21009;-75
2024/01/03 20:27:21;;;;;;;2.20;1.20;;;;;;;;;;4973156;28;20419;-74
2024/01/03 20:29:47;;;;;;;4.53;1.40;;;;;;;;;;4965455;28;20449;-74
2024/01/03 20:32:13;;;;;;;2.57;1.40;;;;;;;;;;4975253;28;20879;-74
2024/01/03 20:34:39;;;;;;;2.97;1.70;;;;;;;;;;4964598;28;20463;-73
2024/01/03 20:37:09;;;;;;;5.07;2.10;;;;;;;;;;4975593;28;20768;-74
2024/01/03 20:39:35;;;;;;;1.67;1.20;;;;;;;;;;4975125;28;20791;-74